National Weather Service Raw Text Product

Displaying AFOS PIL: TAFFOD Received: 2018-08-11 06:09 UTC


043 
FTUS43 KDMX 110609 AAA
TAFFOD
TAF AMD
KFOD 110609Z 1106/1206 VRB03KT 3SM BR FEW250
     FM111300 VRB02KT 6SM BR FEW200
     FM111400 14004KT P6SM SCT250=